sensor_id;sensor_type;location;lat;lon;timestamp;temperature;humidity
37108;DHT22;23019;49.300;6.846;2022-09-29T00:00:59;21.80;99.90
37108;DHT22;23019;49.300;6.846;2022-09-29T00:03:02;21.80;99.90
37108;DHT22;23019;49.300;6.846;2022-09-29T00:05:03;21.80;99.90
37108;DHT22;23019;49.300;6.846;2022-09-29T00:07:12;21.80;99.90
37108;DHT22;23019;49.300;6.846;2022-09-29T00:09:15;21.80;99.90
37108;DHT22;23019;49.300;6.846;2022-09-29T00:11:17;21.80;99.90
37108;DHT22;23019;49.300;6.846;2022-09-29T00:13:21;21.80;99.90
37108;DHT22;23019;49.300;6.846;2022-09-29T00:15:25;21.80;99.90
37108;DHT22;23019;49.300;6.846;2022-09-29T00:17:34;21.80;99.90
37108;DHT22;23019;49.300;6.846;2022-09-29T00:19:37;21.80;99.90
37108;DHT22;23019;49.300;6.846;2022-09-29T00:21:38;21.80;99.90
37108;DHT22;23019;49.300;6.846;2022-09-29T00:23:39;21.80;99.90
37108;DHT22;23019;49.300;6.846;2022-09-29T00:25:40;21.70;99.90
37108;DHT22;23019;49.300;6.846;2022-09-29T00:27:41;21.80;99.90
37108;DHT22;23019;49.300;6.846;2022-09-29T00:29:50;21.80;99.90
37108;DHT22;23019;49.300;6.846;2022-09-29T00:31:51;21.70;99.90
37108;DHT22;23019;49.300;6.846;2022-09-29T00:33:59;21.70;99.90
37108;DHT22;23019;49.300;6.846;2022-09-29T00:36:05;21.70;99.90
37108;DHT22;23019;49.300;6.846;2022-09-29T00:38:13;21.70;99.90
37108;DHT22;23019;49.300;6.846;2022-09-29T00:40:17;21.70;99.90
37108;DHT22;23019;49.300;6.846;2022-09-29T00:42:23;21.70;99.90
37108;DHT22;23019;49.300;6.846;2022-09-29T00:47:01;21.70;99.90
37108;DHT22;23019;49.300;6.846;2022-09-29T00:51:15;21.70;99.90
37108;DHT22;23019;49.300;6.846;2022-09-29T00:53:24;21.70;99.90
37108;DHT22;23019;49.300;6.846;2022-09-29T00:55:42;21.70;99.90
37108;DHT22;23019;49.300;6.846;2022-09-29T00:58:01;21.70;99.90
37108;DHT22;23019;49.300;6.846;2022-09-29T01:00:12;21.70;99.90
37108;DHT22;23019;49.300;6.846;2022-09-29T01:02:16;21.60;99.90
37108;DHT22;23019;49.300;6.846;2022-09-29T01:04:20;21.60;99.90
37108;DHT22;23019;49.300;6.846;2022-09-29T01:06:37;21.60;99.90
37108;DHT22;23019;49.300;6.846;2022-09-29T01:08:42;21.60;99.90
37108;DHT22;23019;49.300;6.846;2022-09-29T01:10:50;21.60;99.90
37108;DHT22;23019;49.300;6.846;2022-09-29T01:12:52;21.60;99.90
37108;DHT22;23019;49.300;6.846;2022-09-29T01:14:58;21.60;99.90
37108;DHT22;23019;49.300;6.846;2022-09-29T01:17:03;21.60;99.90
37108;DHT22;23019;49.300;6.846;2022-09-29T01:19:10;21.60;99.90
37108;DHT22;23019;49.300;6.846;2022-09-29T01:21:45;21.60;99.90
37108;DHT22;23019;49.300;6.846;2022-09-29T01:26:34;21.50;99.90
37108;DHT22;23019;49.300;6.846;2022-09-29T01:29:01;21.60;99.90
37108;DHT22;23019;49.300;6.846;2022-09-29T01:31:19;21.60;99.90
37108;DHT22;23019;49.300;6.846;2022-09-29T01:38:11;21.50;99.90
37108;DHT22;23019;49.300;6.846;2022-09-29T01:40:51;21.50;99.90
37108;DHT22;23019;49.300;6.846;2022-09-29T01:42:51;21.60;99.90
37108;DHT22;23019;49.300;6.846;2022-09-29T01:45:15;21.50;99.90
37108;DHT22;23019;49.300;6.846;2022-09-29T01:47:31;21.50;99.90
37108;DHT22;23019;49.300;6.846;2022-09-29T01:49:43;21.50;99.90
37108;DHT22;23019;49.300;6.846;2022-09-29T01:52:27;21.50;99.90
37108;DHT22;23019;49.300;6.846;2022-09-29T01:54:36;21.50;99.90
37108;DHT22;23019;49.300;6.846;2022-09-29T01:56:46;21.50;99.90
37108;DHT22;23019;49.300;6.846;2022-09-29T01:59:23;21.50;99.90
37108;DHT22;23019;49.300;6.846;2022-09-29T02:01:33;21.50;99.90
37108;DHT22;23019;49.300;6.846;2022-09-29T02:03:40;21.50;99.90
37108;DHT22;23019;49.300;6.846;2022-09-29T02:05:51;21.50;99.90
37108;DHT22;23019;49.300;6.846;2022-09-29T02:07:57;21.50;99.90
37108;DHT22;23019;49.300;6.846;2022-09-29T02:10:24;21.40;99.90
37108;DHT22;23019;49.300;6.846;2022-09-29T02:12:34;21.40;99.90
37108;DHT22;23019;49.300;6.846;2022-09-29T02:14:42;21.40;99.90
37108;DHT22;23019;49.300;6.846;2022-09-29T02:16:58;21.40;99.90
37108;DHT22;23019;49.300;6.846;2022-09-29T02:19:07;21.40;99.90
37108;DHT22;23019;49.300;6.846;2022-09-29T02:21:10;21.40;99.90
37108;DHT22;23019;49.300;6.846;2022-09-29T02:23:17;21.40;99.90
37108;DHT22;23019;49.300;6.846;2022-09-29T02:25:24;21.40;99.90
37108;DHT22;23019;49.300;6.846;2022-09-29T02:27:30;21.40;99.90
37108;DHT22;23019;49.300;6.846;2022-09-29T02:29:39;21.40;99.90
37108;DHT22;23019;49.300;6.846;2022-09-29T02:31:44;21.40;99.90
37108;DHT22;23019;49.300;6.846;2022-09-29T02:33:47;21.40;99.90
37108;DHT22;23019;49.300;6.846;2022-09-29T02:36:12;21.40;99.90
37108;DHT22;23019;49.300;6.846;2022-09-29T02:38:29;21.40;99.90
37108;DHT22;23019;49.300;6.846;2022-09-29T02:40:57;21.40;99.90
37108;DHT22;23019;49.300;6.846;2022-09-29T02:52:45;21.40;99.90
37108;DHT22;23019;49.300;6.846;2022-09-29T02:54:59;21.40;99.90
37108;DHT22;23019;49.300;6.846;2022-09-29T02:57:25;21.40;99.90
37108;DHT22;23019;49.300;6.846;2022-09-29T03:01:50;21.30;99.90
37108;DHT22;23019;49.300;6.846;2022-09-29T03:03:53;21.30;99.90
37108;DHT22;23019;49.300;6.846;2022-09-29T03:05:59;21.30;99.90
37108;DHT22;23019;49.300;6.846;2022-09-29T03:08:05;21.30;99.90
37108;DHT22;23019;49.300;6.846;2022-09-29T03:10:09;21.40;99.90
37108;DHT22;23019;49.300;6.846;2022-09-29T03:12:11;21.40;99.90
37108;DHT22;23019;49.300;6.846;2022-09-29T03:14:14;21.30;99.90
37108;DHT22;23019;49.300;6.846;2022-09-29T03:16:15;21.30;99.90
37108;DHT22;23019;49.300;6.846;2022-09-29T03:18:18;21.30;99.90
37108;DHT22;23019;49.300;6.846;2022-09-29T03:20:36;21.40;99.90
37108;DHT22;23019;49.300;6.846;2022-09-29T03:22:41;21.30;99.90
37108;DHT22;23019;49.300;6.846;2022-09-29T03:24:44;21.30;99.90
37108;DHT22;23019;49.300;6.846;2022-09-29T03:26:50;21.30;99.90
37108;DHT22;23019;49.300;6.846;2022-09-29T03:28:56;21.30;99.90
37108;DHT22;23019;49.300;6.846;2022-09-29T03:31:06;21.30;99.90
37108;DHT22;23019;49.300;6.846;2022-09-29T03:33:11;21.30;99.90
37108;DHT22;23019;49.300;6.846;2022-09-29T03:35:15;21.30;99.90
37108;DHT22;23019;49.300;6.846;2022-09-29T03:37:20;21.30;99.90
37108;DHT22;23019;49.300;6.846;2022-09-29T03:39:21;21.30;99.90
37108;DHT22;23019;49.300;6.846;2022-09-29T03:41:22;21.30;99.90
37108;DHT22;23019;49.300;6.846;2022-09-29T03:43:26;21.30;99.90
37108;DHT22;23019;49.300;6.846;2022-09-29T03:45:49;21.30;99.90
37108;DHT22;23019;49.300;6.846;2022-09-29T03:47:53;21.30;99.90
37108;DHT22;23019;49.300;6.846;2022-09-29T03:49:56;21.30;99.90
37108;DHT22;23019;49.300;6.846;2022-09-29T03:51:57;21.30;99.90
37108;DHT22;23019;49.300;6.846;2022-09-29T03:54:01;21.30;99.90
37108;DHT22;23019;49.300;6.846;2022-09-29T03:56:02;21.30;99.90
37108;DHT22;23019;49.300;6.846;2022-09-29T03:58:09;21.20;99.90
37108;DHT22;23019;49.300;6.846;2022-09-29T04:00:14;21.30;99.90
37108;DHT22;23019;49.300;6.846;2022-09-29T04:02:16;21.20;99.90
37108;DHT22;23019;49.300;6.846;2022-09-29T04:04:23;21.30;99.90
37108;DHT22;23019;49.300;6.846;2022-09-29T04:06:24;21.20;99.90
37108;DHT22;23019;49.300;6.846;2022-09-29T04:08:27;21.20;99.90
37108;DHT22;23019;49.300;6.846;2022-09-29T04:10:34;21.20;99.90
37108;DHT22;23019;49.300;6.846;2022-09-29T04:12:39;21.20;99.90
37108;DHT22;23019;49.300;6.846;2022-09-29T04:14:44;21.20;99.90
37108;DHT22;23019;49.300;6.846;2022-09-29T04:16:53;21.20;99.90
37108;DHT22;23019;49.300;6.846;2022-09-29T04:18:54;21.20;99.90
37108;DHT22;23019;49.300;6.846;2022-09-29T04:21:20;21.20;99.90
37108;DHT22;23019;49.300;6.846;2022-09-29T04:23:44;21.20;99.90
37108;DHT22;23019;49.300;6.846;2022-09-29T04:25:49;21.20;99.90
37108;DHT22;23019;49.300;6.846;2022-09-29T04:27:50;21.30;99.90
37108;DHT22;23019;49.300;6.846;2022-09-29T04:33:28;21.20;99.90
37108;DHT22;23019;49.300;6.846;2022-09-29T04:46:14;21.20;99.90
37108;DHT22;23019;49.300;6.846;2022-09-29T04:49:25;21.20;99.90
37108;DHT22;23019;49.300;6.846;2022-09-29T04:55:24;21.20;99.90
37108;DHT22;23019;49.300;6.846;2022-09-29T04:58:31;21.20;99.90
37108;DHT22;23019;49.300;6.846;2022-09-29T05:01:12;21.20;99.90
37108;DHT22;23019;49.300;6.846;2022-09-29T05:03:59;21.20;99.90
37108;DHT22;23019;49.300;6.846;2022-09-29T05:06:28;21.20;99.90
37108;DHT22;23019;49.300;6.846;2022-09-29T05:08:32;21.20;99.90
37108;DHT22;23019;49.300;6.846;2022-09-29T05:10:40;21.10;99.90
37108;DHT22;23019;49.300;6.846;2022-09-29T05:12:49;21.10;99.90
37108;DHT22;23019;49.300;6.846;2022-09-29T05:14:52;21.10;99.90
37108;DHT22;23019;49.300;6.846;2022-09-29T05:16:56;21.10;99.90
37108;DHT22;23019;49.300;6.846;2022-09-29T05:19:17;21.10;99.90
37108;DHT22;23019;49.300;6.846;2022-09-29T05:21:28;21.10;99.90
37108;DHT22;23019;49.300;6.846;2022-09-29T05:27:07;21.60;99.90
37108;DHT22;23019;49.300;6.846;2022-09-29T05:49:12;54.50;99.90
37108;DHT22;23019;49.300;6.846;2022-09-29T05:55:35;55.20;99.90
37108;DHT22;23019;49.300;6.846;2022-09-29T06:11:35;55.00;99.90
37108;DHT22;23019;49.300;6.846;2022-09-29T07:13:18;48.90;99.90
37108;DHT22;23019;49.300;6.846;2022-09-29T07:30:02;46.90;99.90
37108;DHT22;23019;49.300;6.846;2022-09-29T07:43:46;45.60;99.90
37108;DHT22;23019;49.300;6.846;2022-09-29T07:46:02;45.30;99.90
37108;DHT22;23019;49.300;6.846;2022-09-29T07:48:14;45.10;99.90
37108;DHT22;23019;49.300;6.846;2022-09-29T07:50:42;45.00;99.90
37108;DHT22;23019;49.300;6.846;2022-09-29T07:52:54;44.80;99.90
37108;DHT22;23019;49.300;6.846;2022-09-29T07:55:02;44.50;99.90
37108;DHT22;23019;49.300;6.846;2022-09-29T07:57:26;44.50;99.90
37108;DHT22;23019;49.300;6.846;2022-09-29T07:59:30;44.50;99.90
37108;DHT22;23019;49.300;6.846;2022-09-29T08:02:11;44.70;99.90
37108;DHT22;23019;49.300;6.846;2022-09-29T08:04:25;45.10;99.90
37108;DHT22;23019;49.300;6.846;2022-09-29T08:07:12;45.60;99.90
37108;DHT22;23019;49.300;6.846;2022-09-29T08:12:22;48.20;99.90
37108;DHT22;23019;49.300;6.846;2022-09-29T08:14:42;49.80;99.90
37108;DHT22;23019;49.300;6.846;2022-09-29T08:16:56;51.20;99.90
37108;DHT22;23019;49.300;6.846;2022-09-29T08:19:01;52.20;99.90
37108;DHT22;23019;49.300;6.846;2022-09-29T08:21:17;52.80;99.90
37108;DHT22;23019;49.300;6.846;2022-09-29T08:23:28;53.20;99.90
37108;DHT22;23019;49.300;6.846;2022-09-29T08:25:40;53.40;99.90
37108;DHT22;23019;49.300;6.846;2022-09-29T08:28:03;53.50;99.90
37108;DHT22;23019;49.300;6.846;2022-09-29T08:32:45;53.60;99.90
37108;DHT22;23019;49.300;6.846;2022-09-29T08:35:10;53.60;99.90
37108;DHT22;23019;49.300;6.846;2022-09-29T08:37:30;53.60;99.90
37108;DHT22;23019;49.300;6.846;2022-09-29T08:39:49;53.50;99.90
37108;DHT22;23019;49.300;6.846;2022-09-29T08:42:22;53.30;99.90
37108;DHT22;23019;49.300;6.846;2022-09-29T08:52:37;52.80;99.90
37108;DHT22;23019;49.300;6.846;2022-09-29T08:57:37;52.50;99.90
37108;DHT22;23019;49.300;6.846;2022-09-29T08:59:48;52.30;99.90
37108;DHT22;23019;49.300;6.846;2022-09-29T09:02:18;52.10;99.90
37108;DHT22;23019;49.300;6.846;2022-09-29T09:16:42;50.90;99.90
37108;DHT22;23019;49.300;6.846;2022-09-29T09:26:47;50.00;99.90
37108;DHT22;23019;49.300;6.846;2022-09-29T09:29:17;49.70;99.90
37108;DHT22;23019;49.300;6.846;2022-09-29T09:31:55;49.50;99.90
37108;DHT22;23019;49.300;6.846;2022-09-29T09:36:59;48.90;99.90
37108;DHT22;23019;49.300;6.846;2022-09-29T09:39:25;48.70;99.90
37108;DHT22;23019;49.300;6.846;2022-09-29T09:41:37;48.50;99.90
37108;DHT22;23019;49.300;6.846;2022-09-29T09:44:04;48.30;99.90
37108;DHT22;23019;49.300;6.846;2022-09-29T09:48:42;47.90;99.90
37108;DHT22;23019;49.300;6.846;2022-09-29T09:51:01;47.70;99.90
37108;DHT22;23019;49.300;6.846;2022-09-29T09:56:49;47.20;99.90
37108;DHT22;23019;49.300;6.846;2022-09-29T09:59:04;47.00;99.90
37108;DHT22;23019;49.300;6.846;2022-09-29T10:01:19;46.70;99.90
37108;DHT22;23019;49.300;6.846;2022-09-29T10:03:23;46.50;99.90
37108;DHT22;23019;49.300;6.846;2022-09-29T10:05:41;46.40;99.90
37108;DHT22;23019;49.300;6.846;2022-09-29T10:07:54;46.20;99.90
37108;DHT22;23019;49.300;6.846;2022-09-29T10:10:12;46.00;99.90
37108;DHT22;23019;49.300;6.846;2022-09-29T10:12:29;45.80;99.90
37108;DHT22;23019;49.300;6.846;2022-09-29T10:14:30;45.60;99.90
37108;DHT22;23019;49.300;6.846;2022-09-29T10:17:10;45.30;99.90
37108;DHT22;23019;49.300;6.846;2022-09-29T10:19:13;45.20;99.90
37108;DHT22;23019;49.300;6.846;2022-09-29T10:23:35;44.70;99.90
37108;DHT22;23019;49.300;6.846;2022-09-29T10:25:52;44.60;99.90
37108;DHT22;23019;49.300;6.846;2022-09-29T10:28:01;44.40;99.90
37108;DHT22;23019;49.300;6.846;2022-09-29T10:30:18;44.20;99.90
37108;DHT22;23019;49.300;6.846;2022-09-29T10:32:49;44.00;99.90
37108;DHT22;23019;49.300;6.846;2022-09-29T10:35:36;43.80;99.90
37108;DHT22;23019;49.300;6.846;2022-09-29T10:37:36;43.60;99.90
37108;DHT22;23019;49.300;6.846;2022-09-29T10:39:43;43.40;99.90
37108;DHT22;23019;49.300;6.846;2022-09-29T10:42:02;43.20;99.90
37108;DHT22;23019;49.300;6.846;2022-09-29T10:44:22;43.00;99.90
37108;DHT22;23019;49.300;6.846;2022-09-29T10:47:02;42.80;99.90
37108;DHT22;23019;49.300;6.846;2022-09-29T10:49:24;42.60;99.90
37108;DHT22;23019;49.300;6.846;2022-09-29T10:54:58;42.20;99.90
37108;DHT22;23019;49.300;6.846;2022-09-29T10:57:38;42.00;99.90
37108;DHT22;23019;49.300;6.846;2022-09-29T10:59:49;41.80;99.90
37108;DHT22;23019;49.300;6.846;2022-09-29T11:02:00;41.60;99.90
37108;DHT22;23019;49.300;6.846;2022-09-29T11:04:34;41.50;99.90
37108;DHT22;23019;49.300;6.846;2022-09-29T11:06:48;41.30;99.90
37108;DHT22;23019;49.300;6.846;2022-09-29T11:09:06;41.10;99.90
37108;DHT22;23019;49.300;6.846;2022-09-29T11:11:56;40.90;99.90
37108;DHT22;23019;49.300;6.846;2022-09-29T11:14:03;40.70;99.90
37108;DHT22;23019;49.300;6.846;2022-09-29T11:16:36;40.60;99.90
37108;DHT22;23019;49.300;6.846;2022-09-29T11:19:08;40.40;99.90
37108;DHT22;23019;49.300;6.846;2022-09-29T11:27:12;40.00;99.90
37108;DHT22;23019;49.300;6.846;2022-09-29T11:38:26;39.20;99.90
37108;DHT22;23019;49.300;6.846;2022-09-29T12:14:12;37.20;99.90
37108;DHT22;23019;49.300;6.846;2022-09-29T12:16:54;37.10;99.90
37108;DHT22;23019;49.300;6.846;2022-09-29T12:19:25;36.90;99.90
37108;DHT22;23019;49.300;6.846;2022-09-29T12:21:49;36.80;99.90
37108;DHT22;23019;49.300;6.846;2022-09-29T12:27:49;36.50;99.90
37108;DHT22;23019;49.300;6.846;2022-09-29T12:32:55;36.20;99.90
37108;DHT22;23019;49.300;6.846;2022-09-29T12:38:34;35.90;99.90
37108;DHT22;23019;49.300;6.846;2022-09-29T12:40:56;35.80;99.90
37108;DHT22;23019;49.300;6.846;2022-09-29T12:45:56;35.60;99.90
37108;DHT22;23019;49.300;6.846;2022-09-29T12:48:19;35.40;99.90
37108;DHT22;23019;49.300;6.846;2022-09-29T12:53:20;35.20;99.90
37108;DHT22;23019;49.300;6.846;2022-09-29T12:58:08;34.90;99.90
37108;DHT22;23019;49.300;6.846;2022-09-29T13:19:18;33.90;99.90
37108;DHT22;23019;49.300;6.846;2022-09-29T13:37:32;33.20;99.90
37108;DHT22;23019;49.300;6.846;2022-09-29T13:58:53;32.40;99.90
37108;DHT22;23019;49.300;6.846;2022-09-29T14:01:01;32.30;99.90
37108;DHT22;23019;49.300;6.846;2022-09-29T14:09:29;32.00;99.90
37108;DHT22;23019;49.300;6.846;2022-09-29T14:14:02;31.90;99.90
37108;DHT22;23019;49.300;6.846;2022-09-29T14:21:54;31.60;99.90
37108;DHT22;23019;49.300;6.846;2022-09-29T14:23:55;31.50;99.90
37108;DHT22;23019;49.300;6.846;2022-09-29T14:25:56;31.40;99.90
37108;DHT22;23019;49.300;6.846;2022-09-29T14:27:59;31.30;99.90
37108;DHT22;23019;49.300;6.846;2022-09-29T14:30:41;31.30;99.90
37108;DHT22;23019;49.300;6.846;2022-09-29T14:32:56;31.20;99.90
37108;DHT22;23019;49.300;6.846;2022-09-29T14:35:00;31.00;99.90
37108;DHT22;23019;49.300;6.846;2022-09-29T14:37:05;31.00;99.90
37108;DHT22;23019;49.300;6.846;2022-09-29T14:39:19;30.90;99.90
37108;DHT22;23019;49.300;6.846;2022-09-29T14:41:29;30.80;99.90
37108;DHT22;23019;49.300;6.846;2022-09-29T14:48:39;30.60;99.90
37108;DHT22;23019;49.300;6.846;2022-09-29T15:03:36;30.20;99.90
37108;DHT22;23019;49.300;6.846;2022-09-29T15:06:09;30.10;99.90
37108;DHT22;23019;49.300;6.846;2022-09-29T15:11:55;30.00;99.90
37108;DHT22;23019;49.300;6.846;2022-09-29T15:21:16;29.70;99.90
37108;DHT22;23019;49.300;6.846;2022-09-29T15:25:33;29.50;99.90
37108;DHT22;23019;49.300;6.846;2022-09-29T15:27:35;29.50;99.90
37108;DHT22;23019;49.300;6.846;2022-09-29T15:29:38;29.40;99.90
37108;DHT22;23019;49.300;6.846;2022-09-29T15:31:38;29.40;99.90
37108;DHT22;23019;49.300;6.846;2022-09-29T15:33:43;29.30;99.90
37108;DHT22;23019;49.300;6.846;2022-09-29T15:35:47;29.30;99.90
37108;DHT22;23019;49.300;6.846;2022-09-29T15:39:53;29.20;99.90
37108;DHT22;23019;49.300;6.846;2022-09-29T15:41:59;29.10;99.90
37108;DHT22;23019;49.300;6.846;2022-09-29T15:44:11;29.00;99.90
37108;DHT22;23019;49.300;6.846;2022-09-29T15:48:35;28.90;99.90
37108;DHT22;23019;49.300;6.846;2022-09-29T15:50:42;28.80;99.90
37108;DHT22;23019;49.300;6.846;2022-09-29T15:52:43;28.80;99.90
37108;DHT22;23019;49.300;6.846;2022-09-29T15:54:43;28.80;99.90
37108;DHT22;23019;49.300;6.846;2022-09-29T15:56:46;28.70;99.90
37108;DHT22;23019;49.300;6.846;2022-09-29T15:59:17;28.60;99.90
37108;DHT22;23019;49.300;6.846;2022-09-29T16:01:17;28.60;99.90
37108;DHT22;23019;49.300;6.846;2022-09-29T16:03:28;28.50;99.90
37108;DHT22;23019;49.300;6.846;2022-09-29T16:05:32;28.50;99.90
37108;DHT22;23019;49.300;6.846;2022-09-29T16:07:37;28.40;99.90
37108;DHT22;23019;49.300;6.846;2022-09-29T16:09:38;28.40;99.90
37108;DHT22;23019;49.300;6.846;2022-09-29T16:11:43;28.30;99.90
37108;DHT22;23019;49.300;6.846;2022-09-29T16:13:49;28.30;99.90
37108;DHT22;23019;49.300;6.846;2022-09-29T16:15:51;28.20;99.90
37108;DHT22;23019;49.300;6.846;2022-09-29T16:17:56;28.20;99.90
37108;DHT22;23019;49.300;6.846;2022-09-29T16:19:58;28.10;99.90
37108;DHT22;23019;49.300;6.846;2022-09-29T16:22:04;28.10;99.90
37108;DHT22;23019;49.300;6.846;2022-09-29T16:24:14;28.00;99.90
37108;DHT22;23019;49.300;6.846;2022-09-29T16:26:37;28.00;99.90
37108;DHT22;23019;49.300;6.846;2022-09-29T16:31:16;28.00;99.90
37108;DHT22;23019;49.300;6.846;2022-09-29T16:33:21;27.90;99.90
37108;DHT22;23019;49.300;6.846;2022-09-29T16:35:42;27.80;99.90
37108;DHT22;23019;49.300;6.846;2022-09-29T16:37:48;27.80;99.90
37108;DHT22;23019;49.300;6.846;2022-09-29T16:39:50;27.70;99.90
37108;DHT22;23019;49.300;6.846;2022-09-29T16:42:01;27.70;99.90
37108;DHT22;23019;49.300;6.846;2022-09-29T16:44:22;27.60;99.90
37108;DHT22;23019;49.300;6.846;2022-09-29T16:46:33;27.60;99.90
37108;DHT22;23019;49.300;6.846;2022-09-29T16:48:43;27.50;99.90
37108;DHT22;23019;49.300;6.846;2022-09-29T16:50:46;27.50;99.90
37108;DHT22;23019;49.300;6.846;2022-09-29T16:52:49;27.40;99.90
37108;DHT22;23019;49.300;6.846;2022-09-29T16:54:51;27.40;99.90
37108;DHT22;23019;49.300;6.846;2022-09-29T16:57:28;27.40;99.90
37108;DHT22;23019;49.300;6.846;2022-09-29T16:59:34;27.30;99.90
37108;DHT22;23019;49.300;6.846;2022-09-29T17:01:34;27.30;99.90
37108;DHT22;23019;49.300;6.846;2022-09-29T17:03:35;27.30;99.90
37108;DHT22;23019;49.300;6.846;2022-09-29T17:05:42;27.20;99.90
37108;DHT22;23019;49.300;6.846;2022-09-29T17:07:48;27.20;99.90
37108;DHT22;23019;49.300;6.846;2022-09-29T17:09:55;27.10;99.90
37108;DHT22;23019;49.300;6.846;2022-09-29T17:11:56;27.10;99.90
37108;DHT22;23019;49.300;6.846;2022-09-29T17:13:59;27.10;99.90
37108;DHT22;23019;49.300;6.846;2022-09-29T17:16:00;27.00;99.90
37108;DHT22;23019;49.300;6.846;2022-09-29T17:18:01;26.90;99.90
37108;DHT22;23019;49.300;6.846;2022-09-29T17:20:04;26.90;99.90
37108;DHT22;23019;49.300;6.846;2022-09-29T17:22:19;26.90;99.90
37108;DHT22;23019;49.300;6.846;2022-09-29T17:24:36;26.80;99.90
37108;DHT22;23019;49.300;6.846;2022-09-29T17:26:44;26.80;99.90
37108;DHT22;23019;49.300;6.846;2022-09-29T17:29:04;26.80;99.90
37108;DHT22;23019;49.300;6.846;2022-09-29T17:31:07;26.80;99.90
37108;DHT22;23019;49.300;6.846;2022-09-29T17:33:11;26.70;99.90
37108;DHT22;23019;49.300;6.846;2022-09-29T17:35:16;26.70;99.90
37108;DHT22;23019;49.300;6.846;2022-09-29T17:37:16;26.60;99.90
37108;DHT22;23019;49.300;6.846;2022-09-29T17:39:18;26.60;99.90
37108;DHT22;23019;49.300;6.846;2022-09-29T17:41:18;26.50;99.90
37108;DHT22;23019;49.300;6.846;2022-09-29T17:43:19;26.50;99.90
37108;DHT22;23019;49.300;6.846;2022-09-29T17:45:22;26.50;99.90
37108;DHT22;23019;49.300;6.846;2022-09-29T17:47:25;26.40;99.90
37108;DHT22;23019;49.300;6.846;2022-09-29T17:49:25;26.40;99.90
37108;DHT22;23019;49.300;6.846;2022-09-29T17:51:26;26.30;99.90
37108;DHT22;23019;49.300;6.846;2022-09-29T17:53:27;26.30;99.90
37108;DHT22;23019;49.300;6.846;2022-09-29T17:55:28;26.30;99.90
37108;DHT22;23019;49.300;6.846;2022-09-29T17:57:29;26.30;99.90
37108;DHT22;23019;49.300;6.846;2022-09-29T17:59:31;26.30;99.90
37108;DHT22;23019;49.300;6.846;2022-09-29T18:01:34;26.20;99.90
37108;DHT22;23019;49.300;6.846;2022-09-29T18:03:35;26.20;99.90
37108;DHT22;23019;49.300;6.846;2022-09-29T18:05:37;26.20;99.90
37108;DHT22;23019;49.300;6.846;2022-09-29T18:07:38;26.10;99.90
37108;DHT22;23019;49.300;6.846;2022-09-29T18:09:40;26.10;99.90
37108;DHT22;23019;49.300;6.846;2022-09-29T18:11:41;26.10;99.90
37108;DHT22;23019;49.300;6.846;2022-09-29T18:13:42;26.00;99.90
37108;DHT22;23019;49.300;6.846;2022-09-29T18:15:43;26.00;99.90
37108;DHT22;23019;49.300;6.846;2022-09-29T18:17:45;26.00;99.90
37108;DHT22;23019;49.300;6.846;2022-09-29T18:19:46;25.90;99.90
37108;DHT22;23019;49.300;6.846;2022-09-29T18:21:50;25.90;99.90
37108;DHT22;23019;49.300;6.846;2022-09-29T18:23:51;25.90;99.90
37108;DHT22;23019;49.300;6.846;2022-09-29T18:25:52;25.90;99.90
37108;DHT22;23019;49.300;6.846;2022-09-29T18:27:53;25.80;99.90
37108;DHT22;23019;49.300;6.846;2022-09-29T18:29:54;25.80;99.90
37108;DHT22;23019;49.300;6.846;2022-09-29T18:31:55;25.80;99.90
37108;DHT22;23019;49.300;6.846;2022-09-29T18:33:55;25.70;99.90
37108;DHT22;23019;49.300;6.846;2022-09-29T18:35:56;25.70;99.90
37108;DHT22;23019;49.300;6.846;2022-09-29T18:38:00;25.70;99.90
37108;DHT22;23019;49.300;6.846;2022-09-29T18:40:01;25.60;99.90
37108;DHT22;23019;49.300;6.846;2022-09-29T18:42:02;25.60;99.90
37108;DHT22;23019;49.300;6.846;2022-09-29T18:44:12;25.60;99.90
37108;DHT22;23019;49.300;6.846;2022-09-29T18:46:13;25.60;99.90
37108;DHT22;23019;49.300;6.846;2022-09-29T18:48:14;25.60;99.90
37108;DHT22;23019;49.300;6.846;2022-09-29T18:50:18;25.50;99.90
37108;DHT22;23019;49.300;6.846;2022-09-29T18:52:20;25.50;99.90
37108;DHT22;23019;49.300;6.846;2022-09-29T18:54:20;25.50;99.90
37108;DHT22;23019;49.300;6.846;2022-09-29T18:56:21;25.40;99.90
37108;DHT22;23019;49.300;6.846;2022-09-29T18:58:22;25.40;99.90
37108;DHT22;23019;49.300;6.846;2022-09-29T19:00:32;25.40;99.90
37108;DHT22;23019;49.300;6.846;2022-09-29T19:02:38;25.30;99.90
37108;DHT22;23019;49.300;6.846;2022-09-29T19:04:39;25.30;99.90
37108;DHT22;23019;49.300;6.846;2022-09-29T19:06:40;25.30;99.90
37108;DHT22;23019;49.300;6.846;2022-09-29T19:08:43;25.30;99.90
37108;DHT22;23019;49.300;6.846;2022-09-29T19:10:54;25.30;99.90
37108;DHT22;23019;49.300;6.846;2022-09-29T19:13:01;25.20;99.90
37108;DHT22;23019;49.300;6.846;2022-09-29T19:15:04;25.20;99.90
37108;DHT22;23019;49.300;6.846;2022-09-29T19:17:05;25.20;99.90
37108;DHT22;23019;49.300;6.846;2022-09-29T19:19:06;25.10;99.90
37108;DHT22;23019;49.300;6.846;2022-09-29T19:21:33;25.10;99.90
37108;DHT22;23019;49.300;6.846;2022-09-29T19:23:35;25.10;99.90
37108;DHT22;23019;49.300;6.846;2022-09-29T19:25:40;25.10;99.90
37108;DHT22;23019;49.300;6.846;2022-09-29T19:27:41;25.00;99.90
37108;DHT22;23019;49.300;6.846;2022-09-29T19:29:43;25.00;99.90
37108;DHT22;23019;49.300;6.846;2022-09-29T19:31:44;25.00;99.90
37108;DHT22;23019;49.300;6.846;2022-09-29T19:33:47;25.00;99.90
37108;DHT22;23019;49.300;6.846;2022-09-29T19:35:52;24.90;99.90
37108;DHT22;23019;49.300;6.846;2022-09-29T19:37:57;24.90;99.90
37108;DHT22;23019;49.300;6.846;2022-09-29T19:39:59;24.90;99.90
37108;DHT22;23019;49.300;6.846;2022-09-29T19:42:00;24.90;99.90
37108;DHT22;23019;49.300;6.846;2022-09-29T19:44:01;24.80;99.90
37108;DHT22;23019;49.300;6.846;2022-09-29T19:46:09;24.90;99.90
37108;DHT22;23019;49.300;6.846;2022-09-29T19:48:14;24.80;99.90
37108;DHT22;23019;49.300;6.846;2022-09-29T19:50:14;24.80;99.90
37108;DHT22;23019;49.300;6.846;2022-09-29T19:52:37;24.80;99.90
37108;DHT22;23019;49.300;6.846;2022-09-29T19:54:38;24.80;99.90
37108;DHT22;23019;49.300;6.846;2022-09-29T19:56:48;24.80;99.90
37108;DHT22;23019;49.300;6.846;2022-09-29T19:58:49;24.80;99.90
37108;DHT22;23019;49.300;6.846;2022-09-29T20:00:56;24.80;99.90
37108;DHT22;23019;49.300;6.846;2022-09-29T20:02:57;24.80;99.90
37108;DHT22;23019;49.300;6.846;2022-09-29T20:05:01;24.70;99.90
37108;DHT22;23019;49.300;6.846;2022-09-29T20:07:03;24.70;99.90
37108;DHT22;23019;49.300;6.846;2022-09-29T20:09:05;24.70;99.90
37108;DHT22;23019;49.300;6.846;2022-09-29T20:11:07;24.70;99.90
37108;DHT22;23019;49.300;6.846;2022-09-29T20:13:08;24.70;99.90
37108;DHT22;23019;49.300;6.846;2022-09-29T20:15:10;24.60;99.90